sensor_id;sensor_type;location;lat;lon;timestamp;P1;durP1;ratioP1;P2;durP2;ratioP2
27375;SDS011;14844;51.302;6.354;2022-09-01T00:01:28;4.63;;;1.75;;
27375;SDS011;14844;51.302;6.354;2022-09-01T00:03:54;3.90;;;1.40;;
27375;SDS011;14844;51.302;6.354;2022-09-01T00:06:26;4.72;;;1.45;;
27375;SDS011;14844;51.302;6.354;2022-09-01T00:08:54;3.28;;;1.42;;
27375;SDS011;14844;51.302;6.354;2022-09-01T00:11:22;3.47;;;1.50;;
27375;SDS011;14844;51.302;6.354;2022-09-01T00:13:50;5.80;;;1.80;;
27375;SDS011;14844;51.302;6.354;2022-09-01T00:16:17;3.97;;;1.70;;
27375;SDS011;14844;51.302;6.354;2022-09-01T00:18:44;5.22;;;1.50;;
27375;SDS011;14844;51.302;6.354;2022-09-01T00:21:14;7.65;;;1.58;;
27375;SDS011;14844;51.302;6.354;2022-09-01T00:23:43;4.30;;;1.50;;
27375;SDS011;14844;51.302;6.354;2022-09-01T00:26:09;8.93;;;2.15;;
27375;SDS011;14844;51.302;6.354;2022-09-01T00:28:36;6.38;;;1.77;;
27375;SDS011;14844;51.302;6.354;2022-09-01T00:31:02;6.57;;;1.73;;
27375;SDS011;14844;51.302;6.354;2022-09-01T00:33:30;4.00;;;1.77;;
27375;SDS011;14844;51.302;6.354;2022-09-01T00:35:57;5.35;;;1.60;;
27375;SDS011;14844;51.302;6.354;2022-09-01T00:38:22;5.60;;;2.10;;
27375;SDS011;14844;51.302;6.354;2022-09-01T00:40:48;4.60;;;1.92;;
27375;SDS011;14844;51.302;6.354;2022-09-01T00:43:17;4.32;;;1.67;;
27375;SDS011;14844;51.302;6.354;2022-09-01T00:45:46;7.88;;;1.67;;
27375;SDS011;14844;51.302;6.354;2022-09-01T00:48:15;4.30;;;1.40;;
27375;SDS011;14844;51.302;6.354;2022-09-01T00:50:44;5.38;;;1.63;;
27375;SDS011;14844;51.302;6.354;2022-09-01T00:53:11;7.88;;;1.75;;
27375;SDS011;14844;51.302;6.354;2022-09-01T00:55:36;4.10;;;1.67;;
27375;SDS011;14844;51.302;6.354;2022-09-01T00:58:04;6.25;;;1.85;;
27375;SDS011;14844;51.302;6.354;2022-09-01T01:00:31;4.07;;;1.75;;
27375;SDS011;14844;51.302;6.354;2022-09-01T01:03:05;4.78;;;1.70;;
27375;SDS011;14844;51.302;6.354;2022-09-01T01:05:33;3.92;;;1.48;;
27375;SDS011;14844;51.302;6.354;2022-09-01T01:08:04;8.60;;;2.10;;
27375;SDS011;14844;51.302;6.354;2022-09-01T01:10:32;4.53;;;1.80;;
27375;SDS011;14844;51.302;6.354;2022-09-01T01:13:01;8.00;;;1.77;;
27375;SDS011;14844;51.302;6.354;2022-09-01T01:15:32;4.75;;;1.80;;
27375;SDS011;14844;51.302;6.354;2022-09-01T01:17:58;4.70;;;1.92;;
27375;SDS011;14844;51.302;6.354;2022-09-01T01:20:25;5.20;;;1.70;;
27375;SDS011;14844;51.302;6.354;2022-09-01T01:23:37;9.00;;;1.90;;
27375;SDS011;14844;51.302;6.354;2022-09-01T01:26:07;3.97;;;1.60;;
27375;SDS011;14844;51.302;6.354;2022-09-01T01:28:35;2.97;;;1.52;;
27375;SDS011;14844;51.302;6.354;2022-09-01T01:31:09;6.28;;;1.70;;
27375;SDS011;14844;51.302;6.354;2022-09-01T01:36:06;6.78;;;1.80;;
27375;SDS011;14844;51.302;6.354;2022-09-01T01:38:36;5.77;;;1.70;;
27375;SDS011;14844;51.302;6.354;2022-09-01T01:41:07;6.38;;;1.55;;
27375;SDS011;14844;51.302;6.354;2022-09-01T01:43:37;5.28;;;1.80;;
27375;SDS011;14844;51.302;6.354;2022-09-01T01:46:05;6.65;;;1.80;;
27375;SDS011;14844;51.302;6.354;2022-09-01T01:48:33;5.53;;;1.65;;
27375;SDS011;14844;51.302;6.354;2022-09-01T01:51:01;5.43;;;1.80;;
27375;SDS011;14844;51.302;6.354;2022-09-01T01:53:28;3.72;;;1.58;;
27375;SDS011;14844;51.302;6.354;2022-09-01T01:55:55;6.05;;;1.73;;
27375;SDS011;14844;51.302;6.354;2022-09-01T01:58:23;6.38;;;1.55;;
27375;SDS011;14844;51.302;6.354;2022-09-01T02:00:51;4.85;;;1.75;;
27375;SDS011;14844;51.302;6.354;2022-09-01T02:03:19;3.72;;;1.73;;
27375;SDS011;14844;51.302;6.354;2022-09-01T02:05:47;4.97;;;1.67;;
27375;SDS011;14844;51.302;6.354;2022-09-01T02:08:14;4.85;;;1.67;;
27375;SDS011;14844;51.302;6.354;2022-09-01T02:10:45;5.47;;;1.88;;
27375;SDS011;14844;51.302;6.354;2022-09-01T02:13:16;5.57;;;1.37;;
27375;SDS011;14844;51.302;6.354;2022-09-01T02:15:44;6.47;;;1.40;;
27375;SDS011;14844;51.302;6.354;2022-09-01T02:18:14;7.10;;;1.63;;
27375;SDS011;14844;51.302;6.354;2022-09-01T02:20:48;5.82;;;1.90;;
27375;SDS011;14844;51.302;6.354;2022-09-01T02:23:15;8.88;;;1.80;;
27375;SDS011;14844;51.302;6.354;2022-09-01T02:25:47;5.18;;;1.60;;
27375;SDS011;14844;51.302;6.354;2022-09-01T02:28:14;10.85;;;1.90;;
27375;SDS011;14844;51.302;6.354;2022-09-01T02:30:47;8.70;;;2.63;;
27375;SDS011;14844;51.302;6.354;2022-09-01T02:33:16;6.68;;;1.75;;
27375;SDS011;14844;51.302;6.354;2022-09-01T02:35:47;8.02;;;1.90;;
27375;SDS011;14844;51.302;6.354;2022-09-01T02:40:42;4.15;;;1.60;;
27375;SDS011;14844;51.302;6.354;2022-09-01T02:43:09;5.50;;;1.45;;
27375;SDS011;14844;51.302;6.354;2022-09-01T02:45:35;6.38;;;1.60;;
27375;SDS011;14844;51.302;6.354;2022-09-01T02:48:02;3.00;;;1.60;;
27375;SDS011;14844;51.302;6.354;2022-09-01T02:50:34;9.52;;;1.83;;
27375;SDS011;14844;51.302;6.354;2022-09-01T02:53:04;1.97;;;1.10;;
27375;SDS011;14844;51.302;6.354;2022-09-01T02:55:33;5.28;;;1.40;;
27375;SDS011;14844;51.302;6.354;2022-09-01T02:58:00;4.75;;;1.80;;
27375;SDS011;14844;51.302;6.354;2022-09-01T03:00:26;5.18;;;1.70;;
27375;SDS011;14844;51.302;6.354;2022-09-01T03:02:56;4.90;;;1.90;;
27375;SDS011;14844;51.302;6.354;2022-09-01T03:05:25;6.18;;;1.70;;
27375;SDS011;14844;51.302;6.354;2022-09-01T03:07:54;4.97;;;1.55;;
27375;SDS011;14844;51.302;6.354;2022-09-01T03:10:22;5.47;;;1.85;;
27375;SDS011;14844;51.302;6.354;2022-09-01T03:12:51;7.50;;;2.25;;
27375;SDS011;14844;51.302;6.354;2022-09-01T03:15:17;4.20;;;1.92;;
27375;SDS011;14844;51.302;6.354;2022-09-01T03:17:43;5.03;;;1.65;;
27375;SDS011;14844;51.302;6.354;2022-09-01T03:20:09;2.85;;;1.60;;
27375;SDS011;14844;51.302;6.354;2022-09-01T03:22:35;4.68;;;1.95;;
27375;SDS011;14844;51.302;6.354;2022-09-01T03:25:00;4.90;;;2.00;;
27375;SDS011;14844;51.302;6.354;2022-09-01T03:27:26;4.65;;;2.03;;
27375;SDS011;14844;51.302;6.354;2022-09-01T03:29:51;7.10;;;2.28;;
27375;SDS011;14844;51.302;6.354;2022-09-01T03:32:17;7.35;;;2.00;;
27375;SDS011;14844;51.302;6.354;2022-09-01T03:34:43;4.40;;;1.90;;
27375;SDS011;14844;51.302;6.354;2022-09-01T03:37:08;8.18;;;2.10;;
27375;SDS011;14844;51.302;6.354;2022-09-01T03:39:34;4.18;;;1.83;;
27375;SDS011;14844;51.302;6.354;2022-09-01T03:42:00;3.13;;;2.00;;
27375;SDS011;14844;51.302;6.354;2022-09-01T03:44:26;3.45;;;1.90;;
27375;SDS011;14844;51.302;6.354;2022-09-01T03:46:52;3.83;;;1.90;;
27375;SDS011;14844;51.302;6.354;2022-09-01T03:49:17;8.35;;;2.60;;
27375;SDS011;14844;51.302;6.354;2022-09-01T03:51:51;6.13;;;2.40;;
27375;SDS011;14844;51.302;6.354;2022-09-01T03:54:21;4.90;;;2.33;;
27375;SDS011;14844;51.302;6.354;2022-09-01T03:56:54;7.03;;;2.33;;
27375;SDS011;14844;51.302;6.354;2022-09-01T03:59:23;8.68;;;2.10;;
27375;SDS011;14844;51.302;6.354;2022-09-01T04:01:49;90.65;;;7.80;;
27375;SDS011;14844;51.302;6.354;2022-09-01T04:04:15;30.20;;;3.65;;
27375;SDS011;14844;51.302;6.354;2022-09-01T04:06:41;39.90;;;4.20;;
27375;SDS011;14844;51.302;6.354;2022-09-01T04:09:08;32.60;;;3.70;;
27375;SDS011;14844;51.302;6.354;2022-09-01T04:11:35;21.17;;;3.70;;
27375;SDS011;14844;51.302;6.354;2022-09-01T04:14:03;18.17;;;3.10;;
27375;SDS011;14844;51.302;6.354;2022-09-01T04:16:30;17.02;;;4.95;;
27375;SDS011;14844;51.302;6.354;2022-09-01T04:19:16;16.55;;;3.47;;
27375;SDS011;14844;51.302;6.354;2022-09-01T04:21:49;18.90;;;3.60;;
27375;SDS011;14844;51.302;6.354;2022-09-01T04:24:21;17.53;;;3.10;;
27375;SDS011;14844;51.302;6.354;2022-09-01T04:26:48;12.38;;;2.90;;
27375;SDS011;14844;51.302;6.354;2022-09-01T04:29:18;9.80;;;3.20;;
27375;SDS011;14844;51.302;6.354;2022-09-01T04:31:51;7.07;;;2.63;;
27375;SDS011;14844;51.302;6.354;2022-09-01T04:34:18;12.77;;;2.88;;
27375;SDS011;14844;51.302;6.354;2022-09-01T04:36:46;11.50;;;2.72;;
27375;SDS011;14844;51.302;6.354;2022-09-01T04:39:12;5.60;;;2.60;;
27375;SDS011;14844;51.302;6.354;2022-09-01T04:41:42;11.32;;;2.83;;
27375;SDS011;14844;51.302;6.354;2022-09-01T04:44:10;9.27;;;2.55;;
27375;SDS011;14844;51.302;6.354;2022-09-01T04:46:38;10.48;;;2.90;;
27375;SDS011;14844;51.302;6.354;2022-09-01T04:49:06;12.27;;;3.25;;
27375;SDS011;14844;51.302;6.354;2022-09-01T04:51:39;15.18;;;3.50;;
27375;SDS011;14844;51.302;6.354;2022-09-01T04:54:06;7.45;;;3.17;;
27375;SDS011;14844;51.302;6.354;2022-09-01T04:56:35;10.43;;;2.60;;
27375;SDS011;14844;51.302;6.354;2022-09-01T04:59:01;10.88;;;2.72;;
27375;SDS011;14844;51.302;6.354;2022-09-01T05:01:28;6.63;;;2.90;;
27375;SDS011;14844;51.302;6.354;2022-09-01T05:03:53;10.60;;;2.90;;
27375;SDS011;14844;51.302;6.354;2022-09-01T05:06:25;8.15;;;2.90;;
27375;SDS011;14844;51.302;6.354;2022-09-01T05:08:52;10.65;;;3.15;;
27375;SDS011;14844;51.302;6.354;2022-09-01T05:11:20;9.07;;;3.03;;
27375;SDS011;14844;51.302;6.354;2022-09-01T05:13:47;12.02;;;2.85;;
27375;SDS011;14844;51.302;6.354;2022-09-01T05:16:16;10.25;;;2.90;;
27375;SDS011;14844;51.302;6.354;2022-09-01T05:18:46;7.80;;;2.95;;
27375;SDS011;14844;51.302;6.354;2022-09-01T05:21:14;10.40;;;3.10;;
27375;SDS011;14844;51.302;6.354;2022-09-01T05:23:44;11.35;;;3.25;;
27375;SDS011;14844;51.302;6.354;2022-09-01T05:26:15;8.80;;;2.58;;
27375;SDS011;14844;51.302;6.354;2022-09-01T05:28:43;13.30;;;3.00;;
27375;SDS011;14844;51.302;6.354;2022-09-01T05:31:10;16.85;;;2.90;;
27375;SDS011;14844;51.302;6.354;2022-09-01T05:33:37;12.10;;;2.90;;
27375;SDS011;14844;51.302;6.354;2022-09-01T05:36:09;12.32;;;3.05;;
27375;SDS011;14844;51.302;6.354;2022-09-01T05:38:36;14.15;;;2.63;;
27375;SDS011;14844;51.302;6.354;2022-09-01T05:41:06;16.08;;;2.50;;
27375;SDS011;14844;51.302;6.354;2022-09-01T05:43:34;11.93;;;2.65;;
27375;SDS011;14844;51.302;6.354;2022-09-01T05:46:00;7.70;;;2.90;;
27375;SDS011;14844;51.302;6.354;2022-09-01T05:48:30;13.38;;;3.17;;
27375;SDS011;14844;51.302;6.354;2022-09-01T05:51:04;10.77;;;2.90;;
27375;SDS011;14844;51.302;6.354;2022-09-01T05:53:31;8.55;;;2.63;;
27375;SDS011;14844;51.302;6.354;2022-09-01T05:55:58;10.63;;;2.90;;
27375;SDS011;14844;51.302;6.354;2022-09-01T05:58:30;12.90;;;2.88;;
27375;SDS011;14844;51.302;6.354;2022-09-01T06:00:59;7.50;;;3.30;;
27375;SDS011;14844;51.302;6.354;2022-09-01T06:03:25;10.07;;;2.70;;
27375;SDS011;14844;51.302;6.354;2022-09-01T06:05:52;15.30;;;3.15;;
27375;SDS011;14844;51.302;6.354;2022-09-01T06:08:20;14.00;;;3.25;;
27375;SDS011;14844;51.302;6.354;2022-09-01T06:10:48;15.63;;;3.10;;
27375;SDS011;14844;51.302;6.354;2022-09-01T06:13:16;7.03;;;2.70;;
27375;SDS011;14844;51.302;6.354;2022-09-01T06:15:45;8.85;;;2.80;;
27375;SDS011;14844;51.302;6.354;2022-09-01T06:18:15;16.80;;;3.22;;
27375;SDS011;14844;51.302;6.354;2022-09-01T06:20:42;9.88;;;3.13;;
27375;SDS011;14844;51.302;6.354;2022-09-01T06:23:10;9.63;;;2.83;;
27375;SDS011;14844;51.302;6.354;2022-09-01T06:25:39;12.15;;;2.47;;
27375;SDS011;14844;51.302;6.354;2022-09-01T06:28:10;11.57;;;3.20;;
27375;SDS011;14844;51.302;6.354;2022-09-01T06:30:36;9.02;;;2.88;;
27375;SDS011;14844;51.302;6.354;2022-09-01T06:33:03;9.13;;;2.60;;
27375;SDS011;14844;51.302;6.354;2022-09-01T06:35:33;13.20;;;3.10;;
27375;SDS011;14844;51.302;6.354;2022-09-01T06:37:59;9.38;;;2.47;;
27375;SDS011;14844;51.302;6.354;2022-09-01T06:40:26;14.75;;;2.90;;
27375;SDS011;14844;51.302;6.354;2022-09-01T06:42:52;9.25;;;2.80;;
27375;SDS011;14844;51.302;6.354;2022-09-01T06:45:19;8.52;;;3.10;;
27375;SDS011;14844;51.302;6.354;2022-09-01T06:47:48;8.85;;;2.63;;
27375;SDS011;14844;51.302;6.354;2022-09-01T06:50:16;9.43;;;3.10;;
27375;SDS011;14844;51.302;6.354;2022-09-01T06:52:46;13.82;;;3.10;;
27375;SDS011;14844;51.302;6.354;2022-09-01T06:55:14;9.70;;;3.35;;
27375;SDS011;14844;51.302;6.354;2022-09-01T06:57:41;10.05;;;3.58;;
27375;SDS011;14844;51.302;6.354;2022-09-01T07:00:12;10.63;;;3.78;;
27375;SDS011;14844;51.302;6.354;2022-09-01T07:02:44;11.68;;;3.30;;
27375;SDS011;14844;51.302;6.354;2022-09-01T07:05:11;9.35;;;3.10;;
27375;SDS011;14844;51.302;6.354;2022-09-01T07:07:41;11.45;;;3.80;;
27375;SDS011;14844;51.302;6.354;2022-09-01T07:10:10;17.33;;;3.50;;
27375;SDS011;14844;51.302;6.354;2022-09-01T07:12:38;8.15;;;3.25;;
27375;SDS011;14844;51.302;6.354;2022-09-01T07:15:10;7.55;;;3.15;;
27375;SDS011;14844;51.302;6.354;2022-09-01T07:17:41;11.57;;;3.15;;
27375;SDS011;14844;51.302;6.354;2022-09-01T07:20:12;9.82;;;3.10;;
27375;SDS011;14844;51.302;6.354;2022-09-01T07:22:39;15.13;;;3.28;;
27375;SDS011;14844;51.302;6.354;2022-09-01T07:25:06;18.35;;;2.85;;
27375;SDS011;14844;51.302;6.354;2022-09-01T07:27:32;9.55;;;2.80;;
27375;SDS011;14844;51.302;6.354;2022-09-01T07:29:57;9.35;;;2.70;;
27375;SDS011;14844;51.302;6.354;2022-09-01T07:32:23;9.98;;;2.63;;
27375;SDS011;14844;51.302;6.354;2022-09-01T07:34:48;11.38;;;2.90;;
27375;SDS011;14844;51.302;6.354;2022-09-01T07:37:15;11.75;;;2.88;;
27375;SDS011;14844;51.302;6.354;2022-09-01T07:39:42;9.40;;;2.33;;
27375;SDS011;14844;51.302;6.354;2022-09-01T07:42:10;9.23;;;2.55;;
27375;SDS011;14844;51.302;6.354;2022-09-01T07:44:36;15.75;;;3.08;;
27375;SDS011;14844;51.302;6.354;2022-09-01T07:47:02;9.55;;;2.30;;
27375;SDS011;14844;51.302;6.354;2022-09-01T07:49:32;9.07;;;2.63;;
27375;SDS011;14844;51.302;6.354;2022-09-01T07:51:58;11.68;;;2.72;;
27375;SDS011;14844;51.302;6.354;2022-09-01T07:54:28;9.73;;;2.40;;
27375;SDS011;14844;51.302;6.354;2022-09-01T07:56:54;6.63;;;2.53;;
27375;SDS011;14844;51.302;6.354;2022-09-01T07:59:20;7.45;;;2.47;;
27375;SDS011;14844;51.302;6.354;2022-09-01T08:01:46;8.63;;;2.88;;
27375;SDS011;14844;51.302;6.354;2022-09-01T08:04:12;12.70;;;2.95;;
27375;SDS011;14844;51.302;6.354;2022-09-01T08:06:37;14.05;;;2.88;;
27375;SDS011;14844;51.302;6.354;2022-09-01T08:09:03;11.20;;;2.63;;
27375;SDS011;14844;51.302;6.354;2022-09-01T08:11:32;8.85;;;2.90;;
27375;SDS011;14844;51.302;6.354;2022-09-01T08:13:58;7.03;;;2.45;;
27375;SDS011;14844;51.302;6.354;2022-09-01T08:16:25;5.95;;;2.45;;
27375;SDS011;14844;51.302;6.354;2022-09-01T08:18:51;13.05;;;3.03;;
27375;SDS011;14844;51.302;6.354;2022-09-01T08:21:17;20.70;;;3.30;;
27375;SDS011;14844;51.302;6.354;2022-09-01T08:23:45;10.10;;;2.70;;
27375;SDS011;14844;51.302;6.354;2022-09-01T08:26:12;8.90;;;2.50;;
27375;SDS011;14844;51.302;6.354;2022-09-01T08:28:40;7.55;;;2.60;;
27375;SDS011;14844;51.302;6.354;2022-09-01T08:31:09;9.82;;;2.50;;
27375;SDS011;14844;51.302;6.354;2022-09-01T08:33:36;14.20;;;2.45;;
27375;SDS011;14844;51.302;6.354;2022-09-01T08:36:03;8.20;;;3.00;;
27375;SDS011;14844;51.302;6.354;2022-09-01T08:38:30;15.90;;;2.95;;
27375;SDS011;14844;51.302;6.354;2022-09-01T08:40:56;12.00;;;3.05;;
27375;SDS011;14844;51.302;6.354;2022-09-01T08:46:27;10.95;;;2.40;;
27375;SDS011;14844;51.302;6.354;2022-09-01T08:54:24;9.07;;;2.42;;
27375;SDS011;14844;51.302;6.354;2022-09-01T08:56:57;10.73;;;2.50;;
27375;SDS011;14844;51.302;6.354;2022-09-01T08:59:30;6.88;;;2.28;;
27375;SDS011;14844;51.302;6.354;2022-09-01T09:01:59;7.05;;;1.70;;
27375;SDS011;14844;51.302;6.354;2022-09-01T09:07:13;14.38;;;3.33;;
27375;SDS011;14844;51.302;6.354;2022-09-01T09:10:06;10.25;;;3.45;;
27375;SDS011;14844;51.302;6.354;2022-09-01T09:15:24;5.50;;;2.10;;
27375;SDS011;14844;51.302;6.354;2022-09-01T09:18:04;5.18;;;2.38;;
27375;SDS011;14844;51.302;6.354;2022-09-01T09:20:42;7.35;;;2.47;;
27375;SDS011;14844;51.302;6.354;2022-09-01T09:23:27;9.82;;;2.58;;
27375;SDS011;14844;51.302;6.354;2022-09-01T09:25:57;6.13;;;1.88;;
27375;SDS011;14844;51.302;6.354;2022-09-01T09:28:22;7.20;;;1.48;;
27375;SDS011;14844;51.302;6.354;2022-09-01T09:30:48;10.02;;;1.65;;
27375;SDS011;14844;51.302;6.354;2022-09-01T09:33:33;11.73;;;2.08;;
27375;SDS011;14844;51.302;6.354;2022-09-01T09:36:17;6.35;;;1.55;;
27375;SDS011;14844;51.302;6.354;2022-09-01T09:38:45;3.42;;;1.27;;
27375;SDS011;14844;51.302;6.354;2022-09-01T09:41:18;3.83;;;1.10;;
27375;SDS011;14844;51.302;6.354;2022-09-01T09:43:51;6.13;;;1.40;;
27375;SDS011;14844;51.302;6.354;2022-09-01T09:46:24;3.38;;;1.30;;
27375;SDS011;14844;51.302;6.354;2022-09-01T09:51:39;8.35;;;1.85;;
27375;SDS011;14844;51.302;6.354;2022-09-01T09:54:11;3.22;;;1.17;;
27375;SDS011;14844;51.302;6.354;2022-09-01T09:56:43;6.85;;;1.48;;
27375;SDS011;14844;51.302;6.354;2022-09-01T09:59:45;3.92;;;1.40;;
27375;SDS011;14844;51.302;6.354;2022-09-01T10:02:13;2.72;;;1.30;;
27375;SDS011;14844;51.302;6.354;2022-09-01T10:04:49;6.55;;;1.30;;
27375;SDS011;14844;51.302;6.354;2022-09-01T10:07:26;5.60;;;1.20;;
27375;SDS011;14844;51.302;6.354;2022-09-01T10:09:53;3.17;;;1.13;;
27375;SDS011;14844;51.302;6.354;2022-09-01T10:12:20;4.65;;;1.02;;
27375;SDS011;14844;51.302;6.354;2022-09-01T10:14:50;5.00;;;1.58;;
27375;SDS011;14844;51.302;6.354;2022-09-01T10:17:39;4.60;;;2.03;;
27375;SDS011;14844;51.302;6.354;2022-09-01T10:20:17;5.22;;;2.00;;
27375;SDS011;14844;51.302;6.354;2022-09-01T10:22:46;5.93;;;2.00;;
27375;SDS011;14844;51.302;6.354;2022-09-01T10:25:14;5.40;;;1.50;;
27375;SDS011;14844;51.302;6.354;2022-09-01T10:27:46;6.13;;;1.58;;
27375;SDS011;14844;51.302;6.354;2022-09-01T10:30:17;5.63;;;1.30;;
27375;SDS011;14844;51.302;6.354;2022-09-01T10:32:45;3.47;;;1.20;;
27375;SDS011;14844;51.302;6.354;2022-09-01T10:35:26;5.03;;;1.10;;
27375;SDS011;14844;51.302;6.354;2022-09-01T10:37:55;3.33;;;1.20;;
27375;SDS011;14844;51.302;6.354;2022-09-01T10:42:52;3.63;;;1.10;;
27375;SDS011;14844;51.302;6.354;2022-09-01T10:45:45;6.28;;;1.00;;
27375;SDS011;14844;51.302;6.354;2022-09-01T10:50:48;2.17;;;0.80;;
27375;SDS011;14844;51.302;6.354;2022-09-01T11:04:10;2.00;;;0.82;;
27375;SDS011;14844;51.302;6.354;2022-09-01T11:06:43;3.63;;;1.15;;
27375;SDS011;14844;51.302;6.354;2022-09-01T11:09:18;5.82;;;0.82;;
27375;SDS011;14844;51.302;6.354;2022-09-01T11:14:31;3.83;;;1.08;;
27375;SDS011;14844;51.302;6.354;2022-09-01T11:19:57;3.70;;;1.15;;
27375;SDS011;14844;51.302;6.354;2022-09-01T11:30:31;3.78;;;1.10;;
27375;SDS011;14844;51.302;6.354;2022-09-01T11:33:05;3.15;;;1.00;;
27375;SDS011;14844;51.302;6.354;2022-09-01T11:35:56;4.55;;;0.93;;
27375;SDS011;14844;51.302;6.354;2022-09-01T11:38:25;2.30;;;0.85;;
27375;SDS011;14844;51.302;6.354;2022-09-01T11:40:56;3.65;;;1.10;;
27375;SDS011;14844;51.302;6.354;2022-09-01T11:43:22;2.42;;;0.80;;
27375;SDS011;14844;51.302;6.354;2022-09-01T11:45:54;4.80;;;1.02;;
27375;SDS011;14844;51.302;6.354;2022-09-01T11:48:46;2.78;;;0.80;;
27375;SDS011;14844;51.302;6.354;2022-09-01T11:51:13;3.45;;;0.90;;
27375;SDS011;14844;51.302;6.354;2022-09-01T11:53:39;2.35;;;0.82;;
27375;SDS011;14844;51.302;6.354;2022-09-01T11:56:12;3.47;;;1.00;;
27375;SDS011;14844;51.302;6.354;2022-09-01T11:58:41;2.97;;;0.80;;
27375;SDS011;14844;51.302;6.354;2022-09-01T12:01:17;1.80;;;0.90;;
27375;SDS011;14844;51.302;6.354;2022-09-01T12:03:46;4.05;;;0.80;;
27375;SDS011;14844;51.302;6.354;2022-09-01T12:06:33;3.30;;;0.82;;
27375;SDS011;14844;51.302;6.354;2022-09-01T12:08:59;2.45;;;0.82;;
27375;SDS011;14844;51.302;6.354;2022-09-01T12:11:31;5.55;;;0.90;;
27375;SDS011;14844;51.302;6.354;2022-09-01T12:16:29;3.45;;;0.90;;
27375;SDS011;14844;51.302;6.354;2022-09-01T12:18:57;2.33;;;0.90;;
27375;SDS011;14844;51.302;6.354;2022-09-01T12:23:51;5.22;;;0.90;;
27375;SDS011;14844;51.302;6.354;2022-09-01T12:26:21;4.15;;;0.80;;
27375;SDS011;14844;51.302;6.354;2022-09-01T12:28:51;2.63;;;0.80;;
27375;SDS011;14844;51.302;6.354;2022-09-01T12:31:18;2.58;;;0.98;;
27375;SDS011;14844;51.302;6.354;2022-09-01T12:33:46;5.88;;;0.80;;
27375;SDS011;14844;51.302;6.354;2022-09-01T12:36:13;7.18;;;1.10;;
27375;SDS011;14844;51.302;6.354;2022-09-01T12:38:48;2.75;;;0.82;;
27375;SDS011;14844;51.302;6.354;2022-09-01T12:41:59;1.83;;;0.85;;
27375;SDS011;14844;51.302;6.354;2022-09-01T12:47:05;1.80;;;1.00;;
27375;SDS011;14844;51.302;6.354;2022-09-01T12:49:44;3.00;;;1.00;;
27375;SDS011;14844;51.302;6.354;2022-09-01T12:52:13;7.22;;;1.05;;
27375;SDS011;14844;51.302;6.354;2022-09-01T12:54:43;4.05;;;1.27;;
27375;SDS011;14844;51.302;6.354;2022-09-01T12:57:11;4.75;;;0.98;;
27375;SDS011;14844;51.302;6.354;2022-09-01T13:07:48;6.60;;;1.20;;
27375;SDS011;14844;51.302;6.354;2022-09-01T13:10:18;5.22;;;1.00;;
27375;SDS011;14844;51.302;6.354;2022-09-01T13:12:44;4.20;;;0.85;;
27375;SDS011;14844;51.302;6.354;2022-09-01T13:15:10;3.90;;;1.00;;
27375;SDS011;14844;51.302;6.354;2022-09-01T13:17:36;5.35;;;0.90;;
27375;SDS011;14844;51.302;6.354;2022-09-01T13:20:02;4.78;;;1.20;;
27375;SDS011;14844;51.302;6.354;2022-09-01T13:22:30;6.20;;;0.93;;
27375;SDS011;14844;51.302;6.354;2022-09-01T13:24:55;4.55;;;1.00;;
27375;SDS011;14844;51.302;6.354;2022-09-01T13:27:21;5.53;;;0.88;;
27375;SDS011;14844;51.302;6.354;2022-09-01T13:29:47;4.78;;;1.10;;
27375;SDS011;14844;51.302;6.354;2022-09-01T13:32:14;4.95;;;1.00;;
27375;SDS011;14844;51.302;6.354;2022-09-01T13:34:39;4.30;;;1.02;;
27375;SDS011;14844;51.302;6.354;2022-09-01T13:37:05;8.95;;;1.10;;
27375;SDS011;14844;51.302;6.354;2022-09-01T13:39:30;3.03;;;1.13;;
27375;SDS011;14844;51.302;6.354;2022-09-01T13:41:56;2.47;;;1.10;;
27375;SDS011;14844;51.302;6.354;2022-09-01T13:44:22;2.55;;;1.23;;
27375;SDS011;14844;51.302;6.354;2022-09-01T13:46:47;1.73;;;0.85;;
27375;SDS011;14844;51.302;6.354;2022-09-01T13:49:13;4.35;;;1.25;;
27375;SDS011;14844;51.302;6.354;2022-09-01T13:51:38;4.63;;;1.00;;
27375;SDS011;14844;51.302;6.354;2022-09-01T13:54:04;1.83;;;0.80;;
27375;SDS011;14844;51.302;6.354;2022-09-01T13:56:29;3.58;;;1.10;;
27375;SDS011;14844;51.302;6.354;2022-09-01T13:58:55;2.72;;;1.00;;
27375;SDS011;14844;51.302;6.354;2022-09-01T14:01:21;3.30;;;1.15;;
27375;SDS011;14844;51.302;6.354;2022-09-01T14:03:47;1.98;;;1.00;;
27375;SDS011;14844;51.302;6.354;2022-09-01T14:06:13;1.65;;;0.90;;
27375;SDS011;14844;51.302;6.354;2022-09-01T14:08:39;2.40;;;1.00;;
27375;SDS011;14844;51.302;6.354;2022-09-01T14:11:05;3.58;;;0.80;;
27375;SDS011;14844;51.302;6.354;2022-09-01T14:13:31;2.92;;;1.15;;
27375;SDS011;14844;51.302;6.354;2022-09-01T14:15:58;4.97;;;1.05;;
27375;SDS011;14844;51.302;6.354;2022-09-01T14:18:24;3.08;;;0.90;;
27375;SDS011;14844;51.302;6.354;2022-09-01T14:20:56;3.17;;;0.90;;
27375;SDS011;14844;51.302;6.354;2022-09-01T14:23:24;7.32;;;0.93;;
27375;SDS011;14844;51.302;6.354;2022-09-01T14:25:49;5.47;;;1.10;;
27375;SDS011;14844;51.302;6.354;2022-09-01T14:28:15;2.45;;;0.98;;
27375;SDS011;14844;51.302;6.354;2022-09-01T14:30:42;3.58;;;1.02;;
27375;SDS011;14844;51.302;6.354;2022-09-01T14:33:08;6.93;;;1.13;;
27375;SDS011;14844;51.302;6.354;2022-09-01T14:35:36;2.70;;;0.98;;
27375;SDS011;14844;51.302;6.354;2022-09-01T14:38:03;2.63;;;0.80;;
27375;SDS011;14844;51.302;6.354;2022-09-01T14:40:32;2.90;;;1.20;;
27375;SDS011;14844;51.302;6.354;2022-09-01T14:43:00;4.35;;;1.00;;
27375;SDS011;14844;51.302;6.354;2022-09-01T14:45:26;3.80;;;0.93;;
27375;SDS011;14844;51.302;6.354;2022-09-01T14:47:54;3.05;;;1.00;;
27375;SDS011;14844;51.302;6.354;2022-09-01T14:50:23;3.33;;;1.10;;
27375;SDS011;14844;51.302;6.354;2022-09-01T14:52:50;3.33;;;0.90;;
27375;SDS011;14844;51.302;6.354;2022-09-01T14:55:19;4.20;;;0.80;;
27375;SDS011;14844;51.302;6.354;2022-09-01T14:57:46;4.03;;;1.00;;
27375;SDS011;14844;51.302;6.354;2022-09-01T15:00:12;2.88;;;0.88;;
27375;SDS011;14844;51.302;6.354;2022-09-01T15:02:38;3.13;;;0.90;;
27375;SDS011;14844;51.302;6.354;2022-09-01T15:05:05;3.28;;;1.02;;
27375;SDS011;14844;51.302;6.354;2022-09-01T15:07:31;2.22;;;1.10;;
27375;SDS011;14844;51.302;6.354;2022-09-01T15:09:57;6.22;;;1.40;;
27375;SDS011;14844;51.302;6.354;2022-09-01T15:12:23;4.68;;;1.20;;
27375;SDS011;14844;51.302;6.354;2022-09-01T15:14:49;3.17;;;1.00;;
27375;SDS011;14844;51.302;6.354;2022-09-01T15:17:15;2.72;;;1.20;;
27375;SDS011;14844;51.302;6.354;2022-09-01T15:19:40;7.45;;;1.30;;
27375;SDS011;14844;51.302;6.354;2022-09-01T15:22:06;2.88;;;1.10;;
27375;SDS011;14844;51.302;6.354;2022-09-01T15:24:35;3.03;;;1.08;;
27375;SDS011;14844;51.302;6.354;2022-09-01T15:27:00;3.92;;;0.98;;
27375;SDS011;14844;51.302;6.354;2022-09-01T15:29:26;4.07;;;1.10;;
27375;SDS011;14844;51.302;6.354;2022-09-01T15:31:58;1.30;;;0.90;;
27375;SDS011;14844;51.302;6.354;2022-09-01T15:34:25;5.05;;;1.23;;
27375;SDS011;14844;51.302;6.354;2022-09-01T15:36:52;2.75;;;0.77;;
27375;SDS011;14844;51.302;6.354;2022-09-01T15:39:17;7.15;;;1.38;;
27375;SDS011;14844;51.302;6.354;2022-09-01T15:41:43;7.13;;;1.05;;
27375;SDS011;14844;51.302;6.354;2022-09-01T15:44:09;2.85;;;1.27;;
27375;SDS011;14844;51.302;6.354;2022-09-01T15:46:35;4.47;;;1.00;;
27375;SDS011;14844;51.302;6.354;2022-09-01T15:49:03;2.58;;;1.15;;
27375;SDS011;14844;51.302;6.354;2022-09-01T15:54:05;4.10;;;1.00;;
27375;SDS011;14844;51.302;6.354;2022-09-01T15:56:33;2.78;;;1.30;;
27375;SDS011;14844;51.302;6.354;2022-09-01T15:58:59;2.97;;;1.05;;
27375;SDS011;14844;51.302;6.354;2022-09-01T16:01:26;6.95;;;1.10;;
27375;SDS011;14844;51.302;6.354;2022-09-01T16:03:53;5.20;;;1.25;;
27375;SDS011;14844;51.302;6.354;2022-09-01T16:06:19;4.55;;;1.23;;